Time;durP1;ratioP1;P1;durP2;ratioP2;P2;SDS_P1;SDS_P2;PMS_P1;PMS_P2;Temp;Humidity;BMP_temperature;BMP_pressure;BME280_temperature;BME280_humidity;BME280_pressure;Samples;Min_cycle;Max_cycle;Signal;HPM_P1;HPM_P2
2020/12/22 00:00:42;;;;;;;52.93;31.50;;;;;;;-0.33;64.56;97588.03;1769209;80;21067;-56
2020/12/22 00:03:09;;;;;;;59.88;33.25;;;;;;;-0.32;64.60;97592.69;1766682;80;21084;-56
2020/12/22 00:05:37;;;;;;;67.65;39.00;;;;;;;-0.28;64.57;97593.92;1755895;81;21083;-56
2020/12/22 00:08:14;;;;;;;84.87;45.35;;;;;;;-0.19;64.50;97591.23;1780968;80;21385;-56
2020/12/22 00:10:41;;;;;;;87.08;46.83;;;;;;;-0.12;64.41;97584.80;1787010;80;21068;-55
2020/12/22 00:13:09;;;;;;;76.75;44.88;;;;;;;-0.04;64.20;97587.66;1762845;80;21060;-55
2020/12/22 00:15:38;;;;;;;75.03;41.13;;;;;;;0.03;63.99;97594.80;1778506;80;21067;-55
2020/12/22 00:18:07;;;;;;;67.60;40.70;;;;;;;0.07;63.93;97593.92;1756045;81;21068;-55
2020/12/22 00:20:35;;;;;;;72.78;40.23;;;;;;;0.11;64.01;97587.06;1756328;80;22288;-55
2020/12/22 00:23:03;;;;;;;65.97;37.20;;;;;;;0.17;64.18;97589.55;1772707;80;21233;-55
2020/12/22 00:25:32;;;;;;;;;;;;;;;0.25;64.01;97593.28;1765447;80;21155;-55
2020/12/22 00:27:59;;;;;;;62.13;35.98;;;;;;;0.31;63.87;97590.63;1770655;79;20216;-55
2020/12/22 00:30:27;;;;;;;64.45;36.93;;;;;;;0.31;63.74;97580.00;1769684;80;21119;-55
2020/12/22 00:32:55;;;;;;;58.10;33.88;;;;;;;0.27;63.69;97580.89;1770346;80;22083;-55
2020/12/22 00:35:22;;;;;;;50.63;28.23;;;;;;;0.19;63.84;97576.32;1785092;80;21167;-55
2020/12/22 00:37:51;;;;;;;39.58;21.35;;;;;;;0.18;64.14;97575.89;1767506;80;21068;-55
2020/12/22 00:40:20;;;;;;;42.65;23.30;;;;;;;0.05;64.49;97573.09;1787158;80;21084;-55
2020/12/22 00:42:48;;;;;;;43.50;23.57;;;;;;;-0.18;65.07;97572.97;1771592;80;21051;-55
2020/12/22 00:45:15;;;;;;;29.40;16.65;;;;;;;-0.30;65.61;97574.38;1767591;80;21567;-55
2020/12/22 00:47:43;;;;;;;30.43;16.80;;;;;;;-0.33;66.06;97568.91;1765253;80;21146;-55
2020/12/22 00:50:11;;;;;;;29.35;15.78;;;;;;;-0.48;66.41;97568.61;1777917;78;21119;-55
2020/12/22 00:52:39;;;;;;;28.87;16.93;;;;;;;-0.59;66.94;97569.19;1757543;80;21080;-55
2020/12/22 00:55:09;;;;;;;21.85;13.88;;;;;;;-0.58;67.35;97567.03;1758320;80;21484;-55
2020/12/22 00:57:37;;;;;;;31.33;17.57;;;;;;;-0.52;67.50;97562.31;1748985;80;21206;-55
2020/12/22 01:00:09;;;;;;;29.02;17.27;;;;;;;-0.48;67.51;97557.58;1761813;80;21592;-55
2020/12/22 01:02:37;;;;;;;28.30;15.38;;;;;;;-0.41;67.51;97556.67;1760505;80;21124;-55
2020/12/22 01:05:04;;;;;;;32.53;16.30;;;;;;;-0.40;67.42;97561.72;1760796;80;21142;-55
2020/12/22 01:07:33;;;;;;;36.45;20.77;;;;;;;-0.38;67.47;97553.64;1771715;80;21151;-55
2020/12/22 01:10:01;;;;;;;41.53;21.05;;;;;;;-0.31;67.44;97556.97;1758543;80;22263;-55
2020/12/22 01:12:28;;;;;;;36.98;20.23;;;;;;;-0.19;67.43;97555.53;1760738;80;21100;-55
2020/12/22 01:14:56;;;;;;;40.17;19.77;;;;;;;-0.02;67.33;97555.75;1768279;80;21111;-55
2020/12/22 01:17:24;;;;;;;32.53;19.32;;;;;;;0.15;67.02;97551.72;1786293;80;21076;-55
2020/12/22 01:19:53;;;;;;;33.55;19.10;;;;;;;0.28;66.82;97546.85;1771322;80;21088;-55
2020/12/22 01:22:21;;;;;;;26.57;15.28;;;;;;;0.41;66.49;97544.97;1773775;80;21218;-55
2020/12/22 01:24:49;;;;;;;30.15;17.67;;;;;;;0.50;66.24;97546.53;1760558;80;21546;-55
2020/12/22 01:27:17;;;;;;;23.00;13.72;;;;;;;0.59;66.01;97542.98;1762037;80;21060;-55
2020/12/22 01:29:45;;;;;;;21.30;12.75;;;;;;;0.70;65.61;97542.39;1777115;80;21159;-55
2020/12/22 01:32:13;;;;;;;32.10;17.02;;;;;;;0.73;65.21;97539.79;1764287;79;21171;-56
2020/12/22 01:34:41;;;;;;;23.95;12.95;;;;;;;0.82;64.75;97532.40;1768704;80;21931;-55
2020/12/22 01:37:13;;;;;;;21.37;13.83;;;;;;;0.82;64.75;97532.40;1784274;80;21072;-56
2020/12/22 01:39:40;;;;;;;25.05;15.05;;;;;;;0.84;64.93;97533.20;1766721;80;21493;-55
2020/12/22 01:42:10;;;;;;;22.77;14.85;;;;;;;0.87;65.06;97528.91;1772118;80;21473;-56
2020/12/22 01:44:38;;;;;;;24.72;15.00;;;;;;;0.89;64.99;97523.34;1761453;80;21067;-55
2020/12/22 01:47:08;;;;;;;22.67;14.15;;;;;;;0.91;65.01;97521.59;1774250;80;22368;-56
2020/12/22 01:49:36;;;;;;;21.85;13.72;;;;;;;0.94;64.88;97522.40;1759118;80;21524;-56
2020/12/22 01:52:03;;;;;;;24.63;14.90;;;;;;;0.98;64.80;97522.77;1775511;80;21115;-55
2020/12/22 01:54:32;;;;;;;20.15;12.43;;;;;;;1.00;64.75;97523.13;1781184;80;21186;-56
2020/12/22 01:57:08;;;;;;;17.77;12.07;;;;;;;1.04;64.62;97525.23;1788976;79;21036;-55
2020/12/22 01:59:36;;;;;;;23.30;12.70;;;;;;;1.05;64.38;97517.53;1768374;80;21354;-55
2020/12/22 02:02:04;;;;;;;15.93;10.38;;;;;;;1.02;64.55;97516.72;1776013;80;21147;-55
2020/12/22 02:04:32;;;;;;;14.45;10.13;;;;;;;1.02;64.45;97512.47;1782238;80;21714;-56
2020/12/22 02:07:02;;;;;;;15.18;9.93;;;;;;;0.99;64.25;97513.80;1766214;80;21497;-55
2020/12/22 02:09:30;;;;;;;14.63;9.95;;;;;;;0.99;64.23;97518.91;1780698;80;21135;-55
2020/12/22 02:11:58;;;;;;;16.23;10.70;;;;;;;0.99;63.78;97512.97;1776124;80;21196;-56
2020/12/22 02:14:26;;;;;;;15.13;10.48;;;;;;;0.73;64.12;97510.41;1766471;80;21564;-55
2020/12/22 02:16:54;;;;;;;16.02;10.38;;;;;;;0.73;64.12;97510.41;1773046;80;21123;-56
2020/12/22 02:19:23;;;;;;;14.60;10.25;;;;;;;0.61;64.37;97515.30;1781319;80;21175;-55
2020/12/22 02:21:53;;;;;;;14.55;10.00;;;;;;;0.52;64.60;97512.88;1770347;80;21131;-55
2020/12/22 02:24:20;;;;;;;16.40;10.72;;;;;;;0.45;65.08;97510.84;1779779;80;21372;-56
2020/12/22 02:26:48;;;;;;;15.38;10.00;;;;;;;0.45;65.20;97507.02;1791004;80;21080;-56
2020/12/22 02:29:16;;;;;;;16.55;10.20;;;;;;;0.43;65.35;97502.38;1763450;80;21532;-55
2020/12/22 02:31:43;;;;;;;20.23;10.40;;;;;;;0.28;65.64;97505.14;1788489;80;21175;-55
2020/12/22 02:34:11;;;;;;;32.98;13.32;;;;;;;0.13;66.17;97507.08;1778533;80;21480;-56
2020/12/22 02:36:41;;;;;;;25.50;10.50;;;;;;;-0.02;66.87;97503.03;1781306;80;21238;-55
2020/12/22 02:39:09;;;;;;;17.62;10.90;;;;;;;-0.03;67.47;97498.78;1776914;80;21068;-55
2020/12/22 02:41:36;;;;;;;32.65;10.35;;;;;;;-0.01;67.40;97497.05;1777274;80;21120;-55
2020/12/22 02:44:04;;;;;;;44.73;11.80;;;;;;;0.02;67.42;97494.89;1786086;80;21135;-55
2020/12/22 02:46:32;;;;;;;62.50;13.85;;;;;;;0.11;67.18;97493.47;1781378;80;21162;-56
2020/12/22 02:49:01;;;;;;;42.70;14.43;;;;;;;0.15;67.13;97490.02;1775944;80;21394;-56
2020/12/22 02:51:32;;;;;;;;;;;;;;;0.15;67.13;97490.02;1786527;80;21524;-56
2020/12/22 02:54:00;;;;;;;66.90;16.55;;;;;;;0.17;67.14;97494.67;1780820;79;20221;-56
2020/12/22 02:56:30;;;;;;;52.43;14.93;;;;;;;0.18;67.24;97492.95;1790023;80;21079;-56
2020/12/22 02:58:58;;;;;;;32.08;12.30;;;;;;;0.18;67.25;97489.98;1787114;80;21097;-55
2020/12/22 03:01:26;;;;;;;16.02;9.25;;;;;;;0.18;67.27;97489.12;1766464;80;23472;-55
2020/12/22 03:03:54;;;;;;;25.72;10.90;;;;;;;0.14;67.32;97491.32;1776492;80;21138;-55
2020/12/22 03:06:23;;;;;;;16.90;10.05;;;;;;;-0.02;67.59;97483.03;1772587;80;21544;-55
2020/12/22 03:08:51;;;;;;;15.58;9.80;;;;;;;-0.15;68.14;97477.69;1772461;80;21457;-55
2020/12/22 03:11:19;;;;;;;13.98;9.45;;;;;;;-0.22;68.45;97480.76;1791230;80;21040;-55
2020/12/22 03:13:48;;;;;;;22.42;10.10;;;;;;;-0.32;68.78;97478.76;1767652;80;21147;-56
2020/12/22 03:16:18;;;;;;;15.35;9.25;;;;;;;-0.44;69.33;97472.11;1761100;79;21147;-56
2020/12/22 03:18:46;;;;;;;15.78;10.58;;;;;;;-0.52;69.86;97472.64;1760704;80;21547;-56
2020/12/22 03:21:15;;;;;;;17.80;9.45;;;;;;;-0.61;70.10;97468.92;1761002;80;21166;-56
2020/12/22 03:23:44;;;;;;;16.48;10.88;;;;;;;-0.71;70.58;97468.18;1770479;80;21146;-56
2020/12/22 03:26:11;;;;;;;15.70;10.25;;;;;;;-0.77;70.80;97463.17;1766522;80;22240;-57
2020/12/22 03:28:39;;;;;;;15.53;10.28;;;;;;;-0.72;71.07;97458.00;1785300;79;21992;-56
2020/12/22 03:31:07;;;;;;;15.23;10.45;;;;;;;-0.70;71.01;97449.48;1776013;80;21547;-56
2020/12/22 03:33:35;;;;;;;16.15;10.32;;;;;;;-0.63;70.98;97450.25;1766253;80;21574;-56
2020/12/22 03:36:03;;;;;;;13.83;9.45;;;;;;;-0.56;70.79;97445.48;1758791;80;21623;-56
2020/12/22 03:38:32;;;;;;;16.73;10.40;;;;;;;-0.39;70.46;97441.46;1769192;80;21197;-56
2020/12/22 03:41:00;;;;;;;15.28;10.23;;;;;;;-0.29;70.20;97440.91;1766265;80;21139;-56
2020/12/22 03:43:28;;;;;;;15.40;10.75;;;;;;;-0.23;69.83;97441.67;1756078;80;21063;-56
2020/12/22 03:45:56;;;;;;;16.00;10.82;;;;;;;-0.28;69.69;97437.06;1781048;79;21116;-56
2020/12/22 03:48:25;;;;;;;18.00;10.78;;;;;;;-0.32;69.91;97445.61;1775048;80;21143;-56
2020/12/22 03:50:55;;;;;;;17.67;10.85;;;;;;;-0.28;69.95;97440.89;1785322;80;21362;-57
2020/12/22 03:53:22;;;;;;;15.32;10.10;;;;;;;-0.22;69.94;97436.95;1766415;80;21584;-56
2020/12/22 03:55:50;;;;;;;15.25;10.78;;;;;;;;;;1786978;80;21068;-56
2020/12/22 03:58:19;;;;;;;16.30;10.03;;;;;;;-0.08;69.68;97437.22;1779538;80;21067;-56
2020/12/22 04:00:47;;;;;;;17.20;10.00;;;;;;;-0.04;69.54;97438.84;1777711;80;21052;-56
2020/12/22 04:03:15;;;;;;;16.52;10.05;;;;;;;-0.01;69.33;97436.25;1763702;80;21862;-56
2020/12/22 04:05:44;;;;;;;15.58;10.28;;;;;;;-0.05;69.14;97434.19;1755940;81;21131;-56
2020/12/22 04:08:11;;;;;;;15.50;9.95;;;;;;;-0.05;69.17;97427.80;1757690;80;21139;-56
2020/12/22 04:10:39;;;;;;;14.20;9.70;;;;;;;-0.08;69.12;97428.29;1749208;81;21491;-56
2020/12/22 04:13:07;;;;;;;14.03;9.53;;;;;;;-0.17;69.39;97425.42;1764415;80;21091;-56
2020/12/22 04:15:35;;;;;;;24.27;11.50;;;;;;;-0.28;69.74;97416.66;1776043;80;21411;-56
2020/12/22 04:18:03;;;;;;;18.80;9.95;;;;;;;-0.40;70.06;97416.38;1773371;80;22008;-56
2020/12/22 04:20:32;;;;;;;20.05;9.10;;;;;;;-0.45;70.34;97413.05;1754612;80;21537;-55
2020/12/22 04:23:00;;;;;;;18.48;11.22;;;;;;;-0.52;70.53;97414.45;1762052;80;21068;-56
2020/12/22 04:25:27;;;;;;;23.60;13.10;;;;;;;-0.62;70.76;97412.00;1787018;80;21044;-56
2020/12/22 04:27:55;;;;;;;24.85;14.68;;;;;;;-0.67;70.99;97415.05;1770592;80;21206;-55
2020/12/22 04:30:23;;;;;;;25.08;12.37;;;;;;;-0.73;71.13;97408.75;1779412;80;21128;-54
2020/12/22 04:32:51;;;;;;;20.97;12.03;;;;;;;-0.79;71.31;97406.27;1773168;80;21083;-55
2020/12/22 04:35:21;;;;;;;37.23;13.70;;;;;;;-0.84;71.51;97411.84;1755646;81;21163;-55
2020/12/22 04:37:49;;;;;;;39.92;15.00;;;;;;;-0.85;71.59;97398.72;1753755;80;21508;-55
2020/12/22 04:40:17;;;;;;;24.27;11.47;;;;;;;-0.85;71.56;97394.45;1765761;80;21639;-55
2020/12/22 04:42:44;;;;;;;26.93;11.75;;;;;;;-0.85;71.56;97394.45;1766946;80;21119;-54
2020/12/22 04:45:12;;;;;;;26.57;11.85;;;;;;;-0.87;71.75;97391.09;1769952;80;21618;-55
2020/12/22 04:47:42;;;;;;;18.67;10.25;;;;;;;-0.87;71.81;97388.95;1776709;80;21169;-54
2020/12/22 04:50:11;;;;;;;21.25;11.30;;;;;;;-0.85;71.81;97391.08;1787094;79;21052;-55
2020/12/22 04:52:39;;;;;;;15.95;9.15;;;;;;;-0.85;71.81;97388.09;1779898;80;21433;-54
2020/12/22 04:55:06;;;;;;;15.13;9.75;;;;;;;-0.80;71.77;97383.77;1758463;80;21127;-55
2020/12/22 04:57:34;;;;;;;14.55;9.23;;;;;;;-0.75;71.68;97381.17;1771864;80;21127;-55
2020/12/22 05:00:04;;;;;;;13.93;8.80;;;;;;;-0.73;71.63;97378.61;1754540;80;21143;-55
2020/12/22 05:02:32;;;;;;;14.73;9.38;;;;;;;-0.68;71.60;97378.94;1761269;80;21127;-55
2020/12/22 05:05:01;;;;;;;12.60;9.00;;;;;;;-0.63;71.49;97375.89;1786419;80;21641;-55
2020/12/22 05:07:29;;;;;;;16.37;9.20;;;;;;;-0.58;71.39;97374.16;1779267;80;21068;-53
2020/12/22 05:09:57;;;;;;;16.80;10.20;;;;;;;-0.54;71.22;97370.27;1758260;80;21536;-55
2020/12/22 05:12:25;;;;;;;16.07;10.10;;;;;;;-0.44;71.09;97371.84;1734896;80;22229;-55
2020/12/22 05:14:53;;;;;;;15.85;9.98;;;;;;;-0.35;70.80;97366.59;1756043;80;21476;-55
2020/12/22 05:17:20;;;;;;;21.97;10.43;;;;;;;-0.27;70.52;97362.66;1767309;80;22095;-55
2020/12/22 05:19:50;;;;;;;14.20;9.63;;;;;;;-0.28;70.38;97363.10;1766941;80;21053;-55
2020/12/22 05:22:17;;;;;;;13.72;10.05;;;;;;;-0.23;70.35;97366.84;1713724;80;21492;-55
2020/12/22 05:24:45;;;;;;;16.02;10.03;;;;;;;-0.19;70.16;97355.73;1751070;80;21277;-55
2020/12/22 05:27:14;;;;;;;18.32;11.08;;;;;;;-0.19;70.10;97362.11;1757124;80;21187;-55
2020/12/22 05:29:42;;;;;;;18.55;10.35;;;;;;;-0.16;70.03;97377.81;1723982;80;21369;-55
2020/12/22 05:32:09;;;;;;;23.98;11.57;;;;;;;-0.12;70.11;97377.72;1740849;80;22010;-55
2020/12/22 05:34:37;;;;;;;29.07;15.20;;;;;;;0.05;70.04;97382.99;1775436;79;21514;-55
2020/12/22 05:37:08;;;;;;;19.57;12.20;;;;;;;0.21;69.57;97386.15;1714350;81;21126;-55
2020/12/22 05:39:39;;;;;;;16.85;11.40;;;;;;;0.25;68.96;97389.91;1764354;80;21107;-55
2020/12/22 05:42:16;;;;;;;17.52;11.30;;;;;;;0.18;68.61;97387.89;1756643;80;21367;-56
2020/12/22 05:44:52;;;;;;;20.35;11.03;;;;;;;0.04;68.73;97383.44;1761294;78;21581;-56
2020/12/22 05:47:21;;;;;;;20.25;12.35;;;;;;;-0.05;69.10;97381.02;1772870;79;21178;-56
2020/12/22 05:49:58;;;;;;;21.52;12.40;;;;;;;-0.14;69.17;97382.02;1776086;80;21060;-55
2020/12/22 05:52:28;;;;;;;21.40;12.65;;;;;;;-0.14;69.48;97376.08;1742017;80;21083;-55
2020/12/22 05:54:59;;;;;;;20.77;13.00;;;;;;;-0.11;69.42;97370.48;1766692;80;21433;-55
2020/12/22 05:57:28;;;;;;;;;;;;;;;-0.03;69.33;97370.38;1776000;80;21124;-55
2020/12/22 05:59:56;;;;;;;16.77;10.82;;;;;;;-0.03;69.10;97355.91;1785278;80;20245;-55
2020/12/22 06:02:32;;;;;;;20.52;11.55;;;;;;;-0.13;69.26;97355.65;1770043;80;21112;-55
2020/12/22 06:05:02;;;;;;;14.98;10.13;;;;;;;-0.31;69.66;97341.47;1769964;80;21488;-54
2020/12/22 06:07:31;;;;;;;13.95;8.68;;;;;;;-0.43;70.13;97348.87;1763403;80;21190;-54
2020/12/22 06:09:58;;;;;;;17.70;8.95;;;;;;;-0.57;70.46;97346.95;1760887;80;21076;-54
2020/12/22 06:12:26;;;;;;;18.65;10.43;;;;;;;-0.64;70.91;97339.82;1756479;80;21135;-54
2020/12/22 06:14:54;;;;;;;37.78;15.35;;;;;;;-0.77;71.33;97330.22;1730577;80;21237;-55
2020/12/22 06:17:22;;;;;;;32.53;15.18;;;;;;;-0.88;71.60;97333.78;1762710;80;21047;-55
2020/12/22 06:19:50;;;;;;;41.77;17.77;;;;;;;-0.96;71.86;97333.87;1773046;78;21116;-56
2020/12/22 06:22:19;;;;;;;41.05;15.80;;;;;;;-0.96;72.08;97338.52;1766349;80;21079;-54
2020/12/22 06:24:51;;;;;;;63.80;17.57;;;;;;;-1.00;72.36;97325.43;1760911;80;21103;-55
2020/12/22 06:27:19;;;;;;;71.85;21.73;;;;;;;-1.07;72.58;97340.39;1787374;80;21052;-55
2020/12/22 06:29:47;;;;;;;53.20;16.97;;;;;;;-0.98;72.68;97334.33;1787372;79;21131;-55
2020/12/22 06:32:27;;;;;;;59.88;16.12;;;;;;;-0.78;72.32;97342.98;1776009;80;26107;-55
2020/12/22 06:34:56;;;;;;;;;;;;;;;-0.57;72.01;97339.30;1787473;80;21143;-56
2020/12/22 06:37:42;;;;;;;20.15;9.83;;;;;;;-0.20;71.02;97337.45;1780687;78;20211;-56
2020/12/22 06:40:10;;;;;;;25.17;10.20;;;;;;;0.12;70.35;97334.84;1772170;80;21151;-56
2020/12/22 06:42:44;;;;;;;14.18;8.65;;;;;;;0.52;69.47;97324.73;1766249;80;21091;-56
2020/12/22 06:45:35;;;;;;;14.00;9.55;;;;;;;0.89;67.94;97321.92;1770963;79;22247;-56
2020/12/22 06:48:03;;;;;;;18.05;8.90;;;;;;;1.00;67.17;97315.30;1739772;80;21148;-56
2020/12/22 06:50:43;;;;;;;30.50;12.13;;;;;;;1.18;66.25;97316.63;1781505;80;21056;-56
2020/12/22 06:53:34;;;;;;;27.02;10.63;;;;;;;1.35;65.39;97316.25;1770472;80;21743;-55
2020/12/22 06:56:02;;;;;;;24.00;10.82;;;;;;;1.61;65.00;97324.62;1770196;80;21040;-55
2020/12/22 06:58:41;;;;;;;27.42;12.05;;;;;;;2.29;63.98;97318.70;1764064;80;22139;-54
2020/12/22 07:01:30;;;;;;;27.87;11.55;;;;;;;3.01;62.48;97318.48;1747970;80;21505;-54
2020/12/22 07:04:17;;;;;;;29.97;12.07;;;;;;;3.94;60.73;97317.78;1753178;80;21092;-54
2020/12/22 07:06:56;;;;;;;24.98;11.55;;;;;;;5.10;58.15;97313.81;1746085;80;21135;-54
2020/12/22 07:09:29;;;;;;;67.08;26.65;;;;;;;6.14;55.45;97308.09;1750619;82;21195;-56
2020/12/22 07:12:12;;;;;;;105.15;42.03;;;;;;;7.07;53.09;97311.40;1760725;80;21333;-55
2020/12/22 07:14:41;;;;;;;77.35;34.83;;;;;;;7.81;50.95;97311.43;1755523;79;21058;-55
2020/12/22 07:17:18;;;;;;;82.67;38.92;;;;;;;8.53;48.62;97310.09;1768162;80;21505;-55
2020/12/22 07:19:47;;;;;;;66.53;33.13;;;;;;;8.95;46.90;97303.63;1758719;80;21171;-56
2020/12/22 07:22:18;;;;;;;38.48;24.07;;;;;;;9.20;45.94;97311.75;1781176;80;21100;-56
2020/12/22 07:24:46;;;;;;;42.25;24.18;;;;;;;9.52;44.64;97296.24;1781624;80;21198;-56
2020/12/22 07:27:14;;;;;;;37.38;22.93;;;;;;;9.88;43.57;97298.97;1758377;80;21147;-56
2020/12/22 07:29:42;;;;;;;37.28;22.22;;;;;;;10.08;42.95;97295.71;1750717;80;21056;-57
2020/12/22 07:32:11;;;;;;;37.13;22.07;;;;;;;10.36;42.31;97298.90;1750521;81;21489;-54
2020/12/22 07:34:39;;;;;;;44.45;23.65;;;;;;;10.61;41.55;97294.39;1750730;81;21496;-55
2020/12/22 07:37:11;;;;;;;34.90;22.13;;;;;;;10.98;40.76;97287.44;1752927;80;21370;-55
2020/12/22 07:39:39;;;;;;;31.90;20.27;;;;;;;11.44;39.83;97295.45;1756158;81;21075;-56
2020/12/22 07:42:14;;;;;;;29.82;19.67;;;;;;;11.75;38.66;97282.64;1756330;81;21111;-56
2020/12/22 07:44:43;;;;;;;29.60;17.87;;;;;;;12.00;38.11;97284.98;1758227;80;21497;-55
2020/12/22 07:47:13;;;;;;;30.05;18.55;;;;;;;12.43;37.34;97282.14;1756573;80;21068;-54
2020/12/22 07:49:42;;;;;;;24.87;17.85;;;;;;;12.86;36.67;97276.62;1756158;80;21100;-55
2020/12/22 07:52:16;;;;;;;44.45;21.40;;;;;;;13.28;35.52;97279.78;1756130;80;21083;-55
2020/12/22 07:54:58;;;;;;;41.28;20.97;;;;;;;13.47;35.13;97277.20;1785186;80;21128;-54
2020/12/22 07:57:26;;;;;;;45.33;20.80;;;;;;;13.77;34.58;97273.70;1787324;80;21104;-55
2020/12/22 08:00:05;;;;;;;32.28;20.10;;;;;;;14.28;33.95;97266.54;1759189;80;21143;-55
2020/12/22 08:02:33;;;;;;;32.55;18.92;;;;;;;14.47;33.27;97268.59;1787305;80;21654;-55
2020/12/22 08:05:15;;;;;;;35.55;17.70;;;;;;;14.75;32.92;97263.91;1787438;80;21063;-56
2020/12/22 08:07:44;;;;;;;33.80;23.27;;;;;;;15.01;32.56;97268.42;1787377;79;21116;-55
2020/12/22 08:10:12;;;;;;;37.30;23.20;;;;;;;15.34;31.93;97275.88;1784332;80;21496;-55
2020/12/22 08:12:40;;;;;;;29.15;18.20;;;;;;;15.61;31.30;97267.64;1787450;78;21054;-55
2020/12/22 08:15:10;;;;;;;22.42;13.55;;;;;;;15.78;30.72;97263.69;1772155;79;22368;-56
2020/12/22 08:17:44;;;;;;;22.05;14.80;;;;;;;15.63;30.45;97261.31;1778281;80;21083;-56
2020/12/22 08:20:12;;;;;;;17.75;13.28;;;;;;;15.48;30.96;97261.70;1787410;79;21116;-55
2020/12/22 08:22:45;;;;;;;19.87;14.10;;;;;;;15.57;30.43;97261.80;1787530;80;21071;-55
2020/12/22 08:25:12;;;;;;;26.87;15.20;;;;;;;15.39;30.52;97256.73;1787340;80;21060;-56
2020/12/22 08:27:40;;;;;;;22.07;15.63;;;;;;;15.24;30.97;97256.98;1780662;80;21286;-55
2020/12/22 08:30:19;;;;;;;31.02;14.05;;;;;;;15.54;31.05;97248.99;1758967;80;21076;-54
2020/12/22 08:32:47;;;;;;;15.60;12.00;;;;;;;16.15;30.00;97245.80;1753220;81;21576;-55
2020/12/22 08:35:21;;;;;;;13.70;10.20;;;;;;;15.84;29.81;97246.19;1758078;80;21132;-54
2020/12/22 08:37:49;;;;;;;12.30;10.35;;;;;;;15.20;30.33;97243.82;1752991;81;21469;-55
2020/12/22 08:40:29;;;;;;;10.80;9.38;;;;;;;14.20;31.82;97241.00;1750532;82;21328;-55
2020/12/22 08:42:58;;;;;;;13.48;11.03;;;;;;;13.87;32.20;97245.66;1750500;80;21067;-55
2020/12/22 08:45:28;;;;;;;28.87;13.93;;;;;;;13.71;33.07;97246.75;1750765;80;21131;-56
2020/12/22 08:47:55;;;;;;;16.37;11.45;;;;;;;14.15;32.64;97244.44;1775115;80;21140;-57
2020/12/22 08:50:23;;;;;;;15.80;10.85;;;;;;;14.31;32.33;97242.82;1779416;79;21179;-55
2020/12/22 08:52:53;;;;;;;14.07;10.08;;;;;;;14.29;31.96;97243.39;1750492;82;21195;-55
2020/12/22 08:55:21;;;;;;;17.40;11.18;;;;;;;13.54;32.74;97240.16;1752752;80;21071;-55
2020/12/22 08:57:49;;;;;;;44.53;15.95;;;;;;;12.92;34.19;97240.22;1752755;80;21079;-55
2020/12/22 09:00:17;;;;;;;50.70;15.28;;;;;;;13.01;34.38;97232.59;1750692;80;21063;-55
2020/12/22 09:02:51;;;;;;;18.67;11.00;;;;;;;13.59;33.97;97224.19;1750500;82;21127;-56
2020/12/22 09:05:19;;;;;;;17.50;10.72;;;;;;;14.35;32.82;97228.09;1752619;80;22134;-56
2020/12/22 09:07:59;;;;;;;13.80;10.00;;;;;;;14.87;32.33;97229.02;1750528;80;21719;-55
2020/12/22 09:10:28;;;;;;;16.10;10.78;;;;;;;15.72;31.18;97217.05;1750520;80;21056;-55
2020/12/22 09:12:56;;;;;;;40.60;15.33;;;;;;;16.37;30.39;97216.02;1752799;80;21123;-54
2020/12/22 09:15:24;;;;;;;15.20;10.93;;;;;;;17.05;29.31;97216.83;1767581;80;21144;-55
2020/12/22 09:17:52;;;;;;;38.90;13.83;;;;;;;17.38;28.52;97206.96;1757594;80;21368;-55
2020/12/22 09:20:24;;;;;;;31.87;12.13;;;;;;;17.51;28.13;97209.33;1750400;81;21076;-54
2020/12/22 09:22:51;;;;;;;46.83;14.60;;;;;;;17.65;27.84;97194.50;1721465;82;21080;-54
2020/12/22 09:25:19;;;;;;;37.63;13.93;;;;;;;17.66;27.92;97183.52;1750486;80;21121;-55
2020/12/22 09:27:47;;;;;;;72.35;21.62;;;;;;;17.90;27.55;97166.56;1768036;79;21561;-55
2020/12/22 09:30:15;;;;;;;35.45;11.95;;;;;;;17.12;27.86;97160.75;1765095;80;21203;-55
2020/12/22 09:32:46;;;;;;;32.08;12.13;;;;;;;16.30;29.10;97169.06;1739931;81;21160;-55
2020/12/22 09:35:14;;;;;;;39.40;14.43;;;;;;;16.28;29.31;97165.76;1748170;82;21068;-55
2020/12/22 09:37:41;;;;;;;33.83;10.63;;;;;;;16.47;29.38;97151.09;1744149;82;21060;-55
2020/12/22 09:40:09;;;;;;;26.20;10.93;;;;;;;16.64;28.76;97147.02;1777899;80;21462;-55
2020/12/22 09:42:37;;;;;;;45.90;13.70;;;;;;;15.87;29.55;97139.96;1767688;79;21193;-55
2020/12/22 09:45:05;;;;;;;15.83;9.63;;;;;;;15.56;30.48;97134.61;1762415;80;21163;-56
2020/12/22 09:47:33;;;;;;;51.28;15.25;;;;;;;15.88;29.99;97135.06;1799009;79;21142;-55
2020/12/22 09:50:03;;;;;;;14.83;9.78;;;;;;;15.99;30.23;97131.07;1798975;79;21076;-56
2020/12/22 09:52:30;;;;;;;15.80;9.80;;;;;;;16.45;29.71;97136.81;1799210;78;21045;-55
2020/12/22 09:54:59;;;;;;;23.47;11.35;;;;;;;16.52;29.55;97136.63;1799120;79;21073;-55
2020/12/22 09:57:26;;;;;;;17.07;10.10;;;;;;;16.50;29.65;97128.08;1778474;79;21144;-55
2020/12/22 09:59:56;;;;;;;24.02;11.12;;;;;;;16.35;28.94;97111.07;1767238;79;21155;-55
2020/12/22 10:02:23;;;;;;;11.95;9.08;;;;;;;14.96;30.92;97117.71;1767224;81;21166;-54
2020/12/22 10:04:52;;;;;;;10.23;8.50;;;;;;;14.05;32.59;97111.70;1767600;81;24945;-55
2020/12/22 10:07:20;;;;;;;12.95;9.83;;;;;;;13.37;33.74;97112.37;1767592;80;21295;-56
2020/12/22 10:09:48;;;;;;;14.00;10.55;;;;;;;13.10;34.45;97109.14;1767403;80;21076;-55
2020/12/22 10:12:15;;;;;;;14.50;11.05;;;;;;;13.43;34.26;97107.98;1767422;79;21123;-54
2020/12/22 10:14:43;;;;;;;14.47;11.15;;;;;;;13.08;34.76;97105.34;1776728;78;21551;-56
2020/12/22 10:17:11;;;;;;;15.32;11.33;;;;;;;13.04;34.95;97096.92;1798869;78;21046;-55
2020/12/22 10:19:38;;;;;;;20.02;11.48;;;;;;;13.01;35.58;97097.59;1798978;78;21371;-55
2020/12/22 10:22:06;;;;;;;16.48;11.18;;;;;;;13.77;34.47;97091.14;1799168;79;21144;-55
2020/12/22 10:24:35;;;;;;;14.05;10.85;;;;;;;13.83;34.22;97083.79;1798992;78;21521;-55
2020/12/22 10:27:04;;;;;;;44.42;17.00;;;;;;;13.63;34.38;97074.38;1798911;79;21620;-55
2020/12/22 10:29:33;;;;;;;28.90;13.48;;;;;;;13.39;35.09;97064.86;1798711;79;21156;-55
2020/12/22 10:32:01;;;;;;;30.80;13.00;;;;;;;13.41;34.93;97068.17;1798922;79;21369;-55
2020/12/22 10:34:29;;;;;;;55.95;20.60;;;;;;;12.97;35.07;97057.09;1799134;79;21491;-54
2020/12/22 10:36:57;;;;;;;66.10;22.82;;;;;;;11.96;36.40;97065.91;1798905;79;21156;-55
2020/12/22 10:39:25;;;;;;;28.23;15.27;;;;;;;11.54;37.80;97073.03;1790913;79;21549;-54
2020/12/22 10:41:53;;;;;;;29.45;14.63;;;;;;;11.56;37.74;97064.21;1790212;78;21855;-55
2020/12/22 10:44:21;;;;;;;32.80;16.17;;;;;;;11.63;37.91;97065.93;1789523;80;22135;-57
2020/12/22 10:46:49;;;;;;;27.37;14.75;;;;;;;12.16;37.18;97068.43;1790071;80;21081;-54
2020/12/22 10:49:16;;;;;;;28.38;14.53;;;;;;;12.55;36.23;97073.09;1790090;79;21153;-56
2020/12/22 10:51:44;;;;;;;23.83;15.30;;;;;;;12.57;36.42;97069.08;1744121;80;21573;-55
2020/12/22 10:54:12;;;;;;;28.10;16.25;;;;;;;12.85;36.09;97071.36;1790233;80;21050;-55
2020/12/22 10:56:45;;;;;;;30.82;15.60;;;;;;;13.27;35.55;97076.14;1770079;80;21854;-54
2020/12/22 10:59:13;;;;;;;18.73;13.45;;;;;;;13.17;34.95;97069.47;1789816;79;21068;-55
2020/12/22 11:01:41;;;;;;;25.15;15.08;;;;;;;12.80;35.44;97065.66;1790222;79;21502;-55
2020/12/22 11:04:10;;;;;;;;;;;;;;;11.90;36.80;97063.21;1792624;78;21498;-55
2020/12/22 11:09:18;;;;;;;20.12;13.93;;;;;;;10.05;40.31;97069.88;1890070;75;22196;-55
2020/12/22 11:11:47;;;;;;;22.48;15.13;;;;;;;9.13;41.98;97059.30;1860950;77;20912;-55
2020/12/22 11:14:15;;;;;;;21.95;15.43;;;;;;;8.20;44.15;97057.04;1856489;77;21421;-55
2020/12/22 11:16:43;;;;;;;21.82;15.30;;;;;;;7.37;46.01;97055.72;1827303;78;20954;-55
2020/12/22 11:19:11;;;;;;;20.90;15.15;;;;;;;6.67;47.75;97052.25;1827152;78;21080;-55
2020/12/22 11:21:44;;;;;;;20.08;14.45;;;;;;;6.21;49.38;97053.11;1827206;78;21462;-55
2020/12/22 11:24:12;;;;;;;25.10;15.58;;;;;;;5.74;51.03;97053.02;1827328;78;21129;-55
2020/12/22 11:26:40;;;;;;;18.77;12.18;;;;;;;5.48;52.32;97045.13;1827311;78;21434;-55
2020/12/22 11:29:07;;;;;;;18.00;12.37;;;;;;;5.16;53.54;97032.73;1829462;77;21064;-55
2020/12/22 11:31:35;;;;;;;16.87;12.70;;;;;;;4.57;55.43;97028.25;1784560;80;21061;-54
2020/12/22 11:34:03;;;;;;;21.65;13.35;;;;;;;4.05;56.60;97022.95;1788202;80;21141;-55